createdAt,value
2022-09-01T00:00:28.671Z,17.27
2022-09-01T00:01:28.713Z,17.27
2022-09-01T00:02:28.691Z,17.30
2022-09-01T00:03:28.741Z,17.30
2022-09-01T00:04:28.603Z,17.30
2022-09-01T00:05:28.543Z,17.27
2022-09-01T00:06:28.748Z,17.27
2022-09-01T00:07:28.361Z,17.30
2022-09-01T00:08:28.509Z,17.32
2022-09-01T00:09:28.263Z,17.32
2022-09-01T00:10:28.474Z,17.37
2022-09-01T00:11:28.265Z,17.37
2022-09-01T00:12:28.222Z,17.42
2022-09-01T00:13:28.284Z,17.41
2022-09-01T00:14:29.469Z,17.41
2022-09-01T00:15:28.164Z,17.42
2022-09-01T00:16:27.977Z,17.38
2022-09-01T00:17:28.114Z,17.34
2022-09-01T00:18:28.167Z,17.42
2022-09-01T00:19:27.939Z,17.38
2022-09-01T00:20:27.825Z,17.38
2022-09-01T00:21:27.946Z,17.39
2022-09-01T00:22:27.747Z,17.42
2022-09-01T00:23:27.714Z,17.46
2022-09-01T00:24:27.667Z,17.44
2022-09-01T00:25:28.811Z,17.46
2022-09-01T00:26:27.595Z,17.49
2022-09-01T00:27:31.034Z,17.50
2022-09-01T00:28:30.288Z,17.42
2022-09-01T00:29:27.424Z,17.41
2022-09-01T00:30:27.381Z,17.52
2022-09-01T00:31:27.639Z,17.49
2022-09-01T00:32:27.304Z,17.47
2022-09-01T00:33:27.513Z,17.52
2022-09-01T00:34:27.216Z,17.53
2022-09-01T00:35:27.172Z,17.53
2022-09-01T00:36:27.176Z,17.49
2022-09-01T00:37:27.342Z,17.54
2022-09-01T00:38:27.069Z,17.46
2022-09-01T00:39:27.349Z,17.50
2022-09-01T00:40:26.986Z,17.42
2022-09-01T00:41:26.929Z,17.38
2022-09-01T00:42:27.100Z,17.39
2022-09-01T00:43:26.895Z,17.39
2022-09-01T00:44:27.084Z,17.46
2022-09-01T00:45:26.765Z,17.46
2022-09-01T00:46:28.960Z,17.47
2022-09-01T00:47:26.669Z,17.38
2022-09-01T00:48:26.929Z,17.42
2022-09-01T00:49:35.747Z,17.42
2022-09-01T00:50:26.567Z,17.47
2022-09-01T00:51:26.725Z,17.39
2022-09-01T00:52:26.462Z,17.41
2022-09-01T00:53:26.547Z,17.39
2022-09-01T00:54:26.419Z,17.42
2022-09-01T00:55:26.968Z,17.38
2022-09-01T00:56:26.344Z,17.46
2022-09-01T00:57:26.446Z,17.41
2022-09-01T00:58:26.363Z,17.49
2022-09-01T00:59:26.189Z,17.42
2022-09-01T01:00:36.777Z,17.54
2022-09-01T01:01:26.147Z,17.47
2022-09-01T01:02:26.081Z,17.56
2022-09-01T01:03:26.004Z,17.54
2022-09-01T01:04:25.964Z,17.54
2022-09-01T01:05:26.096Z,17.53
2022-09-01T01:06:25.880Z,17.53
2022-09-01T01:07:25.834Z,17.52
2022-09-01T01:08:25.793Z,17.50
2022-09-01T01:09:25.753Z,17.49
2022-09-01T01:10:25.715Z,17.44
2022-09-01T01:11:25.685Z,17.49
2022-09-01T01:12:25.631Z,17.50
2022-09-01T01:13:25.588Z,17.56
2022-09-01T01:14:25.544Z,17.47
2022-09-01T01:15:25.503Z,17.54
2022-09-01T01:16:25.472Z,17.54
2022-09-01T01:17:25.445Z,17.54
2022-09-01T01:18:25.374Z,17.56
2022-09-01T01:19:25.335Z,17.56
2022-09-01T01:20:25.295Z,17.52
2022-09-01T01:21:25.258Z,17.68
2022-09-01T01:22:26.218Z,17.66
2022-09-01T01:23:25.184Z,17.56
2022-09-01T01:24:25.128Z,17.65
2022-09-01T01:25:25.082Z,17.56
2022-09-01T01:26:25.039Z,17.57
2022-09-01T01:27:25.158Z,17.69
2022-09-01T01:28:24.987Z,17.71
2022-09-01T01:29:24.918Z,17.69
2022-09-01T01:30:24.873Z,17.69
2022-09-01T01:31:24.899Z,17.71
2022-09-01T01:32:24.793Z,17.72
2022-09-01T01:33:24.748Z,17.68
2022-09-01T01:34:24.717Z,17.73
2022-09-01T01:35:24.666Z,17.65
2022-09-01T01:36:24.631Z,17.63
2022-09-01T01:37:24.584Z,17.73
2022-09-01T01:38:24.655Z,17.57
2022-09-01T01:39:24.502Z,17.66
2022-09-01T01:40:24.493Z,17.54
2022-09-01T01:41:24.419Z,17.57
2022-09-01T01:42:24.375Z,17.53
2022-09-01T01:43:24.334Z,17.56
2022-09-01T01:44:24.303Z,17.52
2022-09-01T01:45:24.250Z,17.53
2022-09-01T01:46:24.245Z,17.50
2022-09-01T01:47:24.165Z,17.46
2022-09-01T01:48:24.127Z,17.47
2022-09-01T01:49:24.081Z,17.38
2022-09-01T01:50:24.081Z,17.46
2022-09-01T01:51:24.000Z,17.41
2022-09-01T01:52:26.861Z,17.35
2022-09-01T01:53:23.913Z,17.38
2022-09-01T01:54:23.873Z,17.35
2022-09-01T01:55:23.836Z,17.32
2022-09-01T01:56:23.813Z,17.28
2022-09-01T01:57:23.758Z,17.39
2022-09-01T01:58:23.706Z,17.35
2022-09-01T01:59:23.667Z,17.38
2022-09-01T02:00:27.083Z,17.38
2022-09-01T02:01:23.631Z,17.38
2022-09-01T02:02:23.603Z,17.46
2022-09-01T02:03:23.497Z,17.32
2022-09-01T02:04:23.454Z,17.32
2022-09-01T02:05:23.420Z,17.32
2022-09-01T02:06:23.373Z,17.32
2022-09-01T02:07:23.329Z,17.37
2022-09-01T02:08:23.305Z,17.27
2022-09-01T02:09:23.271Z,17.31
2022-09-01T02:10:23.203Z,17.30
2022-09-01T02:11:23.159Z,17.37
2022-09-01T02:12:23.121Z,17.31
2022-09-01T02:13:23.079Z,17.23
2022-09-01T02:14:23.045Z,17.17
2022-09-01T02:15:24.712Z,17.23
2022-09-01T02:16:23.819Z,17.24
2022-09-01T02:17:22.910Z,17.24
2022-09-01T02:18:22.870Z,17.24
2022-09-01T02:19:22.825Z,17.24
2022-09-01T02:20:22.815Z,17.22
2022-09-01T02:21:22.796Z,17.27
2022-09-01T02:22:22.716Z,17.23
2022-09-01T02:23:22.661Z,17.22
2022-09-01T02:24:22.648Z,17.20
2022-09-01T02:25:22.580Z,17.22
2022-09-01T02:26:22.545Z,17.27
2022-09-01T02:27:22.590Z,17.23
2022-09-01T02:28:22.450Z,17.24
2022-09-01T02:29:22.412Z,17.30
2022-09-01T02:30:22.451Z,17.24
2022-09-01T02:31:22.324Z,17.27
2022-09-01T02:32:22.285Z,17.27
2022-09-01T02:33:22.257Z,17.24
2022-09-01T02:34:22.197Z,17.14
2022-09-01T02:35:22.158Z,17.20
2022-09-01T02:36:22.115Z,17.19
2022-09-01T02:37:22.074Z,17.19
2022-09-01T02:38:22.035Z,17.13
2022-09-01T02:39:22.036Z,17.10
2022-09-01T02:40:22.004Z,17.19
2022-09-01T02:41:21.907Z,17.16
2022-09-01T02:42:21.870Z,17.12
2022-09-01T02:43:21.863Z,17.04
2022-09-01T02:44:21.782Z,17.04
2022-09-01T02:45:21.847Z,17.02
2022-09-01T02:46:21.712Z,16.98
2022-09-01T02:47:21.663Z,17.01
2022-09-01T02:48:21.710Z,17.05
2022-09-01T02:49:21.571Z,17.04
2022-09-01T02:50:21.535Z,16.95
2022-09-01T02:51:21.507Z,16.97
2022-09-01T02:52:21.451Z,16.98
2022-09-01T02:53:21.410Z,16.94
2022-09-01T02:54:21.394Z,16.98
2022-09-01T02:55:21.324Z,16.99
2022-09-01T02:56:21.280Z,16.95
2022-09-01T02:57:21.249Z,17.04
2022-09-01T02:58:21.368Z,16.99
2022-09-01T02:59:21.151Z,16.98
2022-09-01T03:00:21.122Z,16.94
2022-09-01T03:01:21.114Z,16.98
2022-09-01T03:02:21.028Z,17.05
2022-09-01T03:03:21.021Z,17.01
2022-09-01T03:05:20.906Z,16.99
2022-09-01T03:06:20.860Z,16.92
2022-09-01T03:07:20.829Z,16.92
2022-09-01T03:08:21.008Z,16.92
2022-09-01T03:09:20.747Z,16.92
2022-09-01T03:10:20.692Z,16.86
2022-09-01T03:11:20.648Z,16.80
2022-09-01T03:12:20.609Z,16.84
2022-09-01T03:13:20.567Z,16.82
2022-09-01T03:14:20.546Z,16.80
2022-09-01T03:15:20.481Z,16.83
2022-09-01T03:16:20.490Z,16.82
2022-09-01T03:17:20.394Z,16.83
2022-09-01T03:18:20.486Z,16.84
2022-09-01T03:19:20.312Z,16.74
2022-09-01T03:20:20.285Z,16.80
2022-09-01T03:21:20.230Z,16.80
2022-09-01T03:22:20.910Z,16.79
2022-09-01T03:23:20.151Z,16.73
2022-09-01T03:24:20.253Z,16.76
2022-09-01T03:25:20.070Z,16.72
2022-09-01T03:26:20.038Z,16.77
2022-09-01T03:27:19.976Z,16.62
2022-09-01T03:28:20.130Z,16.72
2022-09-01T03:29:19.890Z,16.68
2022-09-01T03:30:19.852Z,16.77
2022-09-01T03:31:19.908Z,16.69
2022-09-01T03:32:19.780Z,16.65
2022-09-01T03:33:19.726Z,16.73
2022-09-01T03:34:19.680Z,16.62
2022-09-01T03:35:19.639Z,16.62
2022-09-01T03:36:20.469Z,16.65
2022-09-01T03:37:19.556Z,16.64
2022-09-01T03:38:21.513Z,16.69
2022-09-01T03:39:19.493Z,16.66
2022-09-01T03:40:19.490Z,16.68
2022-09-01T03:41:19.382Z,16.68
2022-09-01T03:42:19.347Z,16.66
2022-09-01T03:43:19.301Z,16.66
2022-09-01T03:44:19.260Z,16.72
2022-09-01T03:45:19.857Z,16.72
2022-09-01T03:46:19.259Z,16.66
2022-09-01T03:47:19.805Z,16.65
2022-09-01T03:48:19.365Z,16.65
2022-09-01T03:49:19.050Z,16.65
2022-09-01T03:50:19.010Z,16.73
2022-09-01T03:51:18.999Z,16.72
2022-09-01T03:52:18.925Z,16.64
2022-09-01T03:53:18.882Z,16.64
2022-09-01T03:54:18.865Z,16.68
2022-09-01T03:55:18.796Z,16.59
2022-09-01T03:56:18.759Z,16.69
2022-09-01T03:57:18.753Z,16.62
2022-09-01T03:58:18.674Z,16.74
2022-09-01T03:59:18.629Z,16.64
2022-09-01T04:00:18.585Z,16.76
2022-09-01T04:01:18.580Z,16.79
2022-09-01T04:02:18.544Z,16.77
2022-09-01T04:03:18.576Z,16.77
2022-09-01T04:04:18.419Z,16.83
2022-09-01T04:05:18.376Z,16.80
2022-09-01T04:06:18.339Z,16.89
2022-09-01T04:07:19.169Z,16.91
2022-09-01T04:08:18.476Z,16.97
2022-09-01T04:09:18.235Z,16.97
2022-09-01T04:10:18.166Z,16.98
2022-09-01T04:11:18.132Z,17.12
2022-09-01T04:12:18.082Z,17.05
2022-09-01T04:13:18.039Z,17.01
2022-09-01T04:14:18.010Z,17.04
2022-09-01T04:15:17.971Z,17.09
2022-09-01T04:16:17.962Z,16.95
2022-09-01T04:17:17.872Z,16.99
2022-09-01T04:18:17.831Z,16.92
2022-09-01T04:19:17.808Z,16.95
2022-09-01T04:20:17.745Z,16.91
2022-09-01T04:21:17.702Z,16.95
2022-09-01T04:22:17.745Z,16.86
2022-09-01T04:23:17.615Z,16.82
2022-09-01T04:24:17.577Z,16.95
2022-09-01T04:25:17.557Z,16.80
2022-09-01T04:26:17.500Z,16.84
2022-09-01T04:27:17.454Z,16.80
2022-09-01T04:28:17.472Z,16.89
2022-09-01T04:29:17.368Z,16.83
2022-09-01T04:30:17.356Z,16.77
2022-09-01T04:31:17.331Z,16.79
2022-09-01T04:32:17.243Z,16.97
2022-09-01T04:33:17.201Z,16.91
2022-09-01T04:34:17.181Z,16.94
2022-09-01T04:35:17.320Z,17.01
2022-09-01T04:36:17.075Z,17.01
2022-09-01T04:37:17.031Z,16.98
2022-09-01T04:38:17.014Z,16.98
2022-09-01T04:39:16.947Z,16.92
2022-09-01T04:40:17.107Z,16.89
2022-09-01T04:41:16.862Z,17.02
2022-09-01T04:42:16.823Z,17.02
2022-09-01T04:43:16.784Z,17.09
2022-09-01T04:44:16.755Z,17.16
2022-09-01T04:45:20.504Z,17.14
2022-09-01T04:46:16.700Z,17.17
2022-09-01T04:47:16.612Z,17.22
2022-09-01T04:48:16.618Z,17.23
2022-09-01T04:49:16.528Z,17.32
2022-09-01T04:50:16.496Z,17.28
2022-09-01T04:51:16.449Z,17.22
2022-09-01T04:52:16.408Z,17.30
2022-09-01T04:53:16.360Z,17.32
2022-09-01T04:54:16.322Z,17.35
2022-09-01T04:55:16.297Z,17.38
2022-09-01T04:56:16.238Z,17.30
2022-09-01T04:57:16.194Z,17.39
2022-09-01T04:58:16.212Z,17.37
2022-09-01T04:59:16.106Z,17.49
2022-09-01T05:00:16.072Z,17.53
2022-09-01T05:01:16.187Z,17.52
2022-09-01T05:02:16.003Z,17.57
2022-09-01T05:03:15.952Z,17.71
2022-09-01T05:04:15.901Z,17.60
2022-09-01T05:05:15.863Z,17.71
2022-09-01T05:06:15.832Z,17.71
2022-09-01T05:07:15.819Z,17.69
2022-09-01T05:08:23.122Z,17.71
2022-09-01T05:09:15.726Z,17.71
2022-09-01T05:10:15.661Z,17.75
2022-09-01T05:11:15.604Z,17.84
2022-09-01T05:12:15.909Z,17.90
2022-09-01T05:13:15.536Z,18.00
2022-09-01T05:14:15.485Z,17.95
2022-09-01T05:15:15.443Z,18.02
2022-09-01T05:16:15.430Z,18.03
2022-09-01T05:17:15.353Z,18.08
2022-09-01T05:18:15.321Z,18.16
2022-09-01T05:19:15.292Z,18.23
2022-09-01T05:20:15.301Z,18.19
2022-09-01T05:21:15.188Z,18.34
2022-09-01T05:22:15.147Z,18.36
2022-09-01T05:23:15.109Z,18.33
2022-09-01T05:24:15.070Z,18.31
2022-09-01T05:25:15.041Z,18.36
2022-09-01T05:26:14.988Z,18.39
2022-09-01T05:27:14.971Z,18.45
2022-09-01T05:28:14.904Z,18.33
2022-09-01T05:29:14.867Z,18.28
2022-09-01T05:30:14.822Z,18.34
2022-09-01T05:31:14.871Z,18.41
2022-09-01T05:32:14.740Z,18.41
2022-09-01T05:33:17.629Z,18.49
2022-09-01T05:34:14.651Z,18.57
2022-09-01T05:35:14.611Z,18.51
2022-09-01T05:36:14.573Z,18.53
2022-09-01T05:37:14.538Z,18.51
2022-09-01T05:38:14.502Z,18.52
2022-09-01T05:39:14.461Z,18.60
2022-09-01T05:40:14.458Z,18.63
2022-09-01T05:41:14.367Z,18.61
2022-09-01T05:42:14.328Z,18.66
2022-09-01T05:43:14.277Z,18.73
2022-09-01T05:44:14.255Z,18.76
2022-09-01T05:45:14.238Z,18.76
2022-09-01T05:46:14.212Z,18.92
2022-09-01T05:47:20.644Z,18.94
2022-09-01T05:48:14.080Z,18.89
2022-09-01T05:49:14.086Z,18.86
2022-09-01T05:50:14.812Z,18.85
2022-09-01T05:51:33.539Z,18.92
2022-09-01T05:52:13.906Z,18.94
2022-09-01T05:53:13.866Z,18.81
2022-09-01T05:54:13.823Z,18.81
2022-09-01T05:55:13.785Z,18.78
2022-09-01T05:56:13.742Z,18.81
2022-09-01T05:57:33.143Z,18.85
2022-09-01T05:58:13.658Z,18.86
2022-09-01T05:59:28.777Z,18.97
2022-09-01T06:03:47.418Z,19.01
2022-09-01T06:04:47.035Z,19.00
2022-09-01T06:05:47.229Z,18.97
2022-09-01T06:07:06.728Z,18.96
2022-09-01T06:07:46.909Z,18.98
2022-09-01T06:08:47.043Z,19.05
2022-09-01T06:09:46.836Z,19.09
2022-09-01T06:10:47.065Z,19.17
2022-09-01T06:11:46.743Z,19.22
2022-09-01T06:12:48.682Z,19.19
2022-09-01T06:13:46.658Z,19.39
2022-09-01T06:14:47.091Z,19.41
2022-09-01T06:15:46.576Z,19.39
2022-09-01T06:16:46.708Z,19.42
2022-09-01T06:17:46.501Z,19.47
2022-09-01T06:18:46.708Z,19.52
2022-09-01T06:19:46.409Z,19.56
2022-09-01T06:20:47.543Z,19.57
2022-09-01T06:21:46.333Z,19.62
2022-09-01T06:22:46.532Z,19.60
2022-09-01T06:23:46.246Z,19.67
2022-09-01T06:24:49.624Z,19.74
2022-09-01T06:25:46.506Z,19.79
2022-09-01T06:26:46.152Z,19.74
2022-09-01T06:27:46.482Z,19.82
2022-09-01T06:28:46.041Z,19.87
2022-09-01T06:29:46.071Z,19.87
2022-09-01T06:30:45.966Z,20.03
2022-09-01T06:31:46.150Z,20.03
2022-09-01T06:32:45.880Z,20.17
2022-09-01T06:33:45.902Z,20.21
2022-09-01T06:34:45.803Z,20.27
2022-09-01T06:35:45.911Z,20.30
2022-09-01T06:36:45.721Z,20.32
2022-09-01T06:37:45.724Z,20.37
2022-09-01T06:38:45.637Z,20.21
2022-09-01T06:39:46.250Z,20.36
2022-09-01T06:40:45.653Z,20.33
2022-09-01T06:41:45.653Z,20.32
2022-09-01T06:42:45.554Z,20.37
2022-09-01T06:43:46.502Z,20.39
2022-09-01T06:44:45.573Z,20.46
2022-09-01T06:45:45.368Z,20.48
2022-09-01T06:46:45.411Z,20.42
2022-09-01T06:47:45.276Z,20.40
2022-09-01T06:48:45.355Z,20.60
2022-09-01T06:49:45.300Z,20.66
2022-09-01T06:51:45.113Z,20.74
2022-09-01T06:53:45.124Z,20.80
2022-09-01T06:54:45.128Z,20.78
2022-09-01T06:55:44.951Z,20.83
2022-09-01T06:56:51.453Z,20.80
2022-09-01T06:58:44.830Z,20.83
2022-09-01T06:59:45.164Z,20.92
2022-09-01T07:00:44.760Z,21.00
2022-09-01T07:01:44.885Z,21.00
2022-09-01T07:02:44.733Z,21.08
2022-09-01T07:03:44.796Z,21.00
2022-09-01T07:04:44.591Z,21.17
2022-09-01T07:07:00.329Z,21.26
2022-09-01T07:13:05.032Z,21.68
2022-09-01T07:14:15.188Z,21.65
2022-09-01T07:16:51.760Z,21.69
2022-09-01T07:17:44.270Z,21.75
2022-09-01T07:18:44.656Z,21.70
2022-09-01T07:19:51.035Z,21.72
2022-09-01T07:22:06.655Z,21.88
2022-09-01T07:24:06.053Z,22.07
2022-09-01T07:24:43.799Z,22.14
2022-09-01T07:26:02.404Z,22.21
2022-09-01T07:26:47.524Z,22.22
2022-09-01T07:27:43.930Z,22.31
2022-09-01T07:28:43.636Z,22.34
2022-09-01T07:29:43.600Z,22.19
2022-09-01T07:30:43.938Z,22.22
2022-09-01T07:31:51.984Z,22.23
2022-09-01T07:32:47.218Z,22.33
2022-09-01T07:33:44.417Z,22.44
2022-09-01T07:34:46.284Z,22.40
2022-09-01T07:36:25.579Z,22.52
2022-09-01T07:39:48.381Z,22.81
2022-09-01T07:39:51.549Z,22.83
2022-09-01T07:43:43.049Z,22.83
2022-09-01T07:44:44.124Z,22.83
2022-09-01T07:45:58.898Z,22.89
2022-09-01T07:46:43.093Z,22.91
2022-09-01T07:47:58.099Z,22.83
2022-09-01T07:51:35.770Z,23.02
2022-09-01T07:51:42.773Z,23.02
2022-09-01T07:52:42.710Z,23.10
2022-09-01T07:53:42.662Z,23.21
2022-09-01T07:54:42.706Z,23.18
2022-09-01T07:55:44.004Z,23.25
2022-09-01T07:56:42.717Z,23.26
2022-09-01T07:57:42.598Z,23.33
2022-09-01T07:58:42.469Z,23.39
2022-09-01T07:59:42.489Z,23.29
2022-09-01T08:00:42.537Z,23.20
2022-09-01T08:01:42.381Z,23.25
2022-09-01T08:02:42.582Z,23.29
2022-09-01T08:03:42.288Z,23.33
2022-09-01T08:04:42.411Z,23.39
2022-09-01T08:05:42.369Z,23.33
2022-09-01T08:06:42.243Z,23.23
2022-09-01T08:07:56.631Z,23.29
2022-09-01T08:08:42.086Z,23.21
2022-09-01T08:09:44.255Z,23.34
2022-09-01T08:10:42.009Z,23.37
2022-09-01T08:12:42.009Z,23.25
2022-09-01T08:13:42.180Z,23.23
2022-09-01T08:14:42.020Z,23.26
2022-09-01T08:16:06.672Z,23.29
2022-09-01T08:16:52.003Z,23.39
2022-09-01T08:17:57.067Z,23.64
2022-09-01T08:18:49.475Z,23.69
2022-09-01T08:19:42.953Z,23.85
2022-09-01T08:20:41.620Z,23.99
2022-09-01T08:21:41.664Z,24.10
2022-09-01T08:22:41.547Z,24.10
2022-09-01T08:23:41.689Z,24.03
2022-09-01T08:24:41.570Z,23.99
2022-09-01T08:25:41.545Z,24.06
2022-09-01T08:26:41.394Z,24.14
2022-09-01T08:27:41.910Z,24.00
2022-09-01T08:28:45.921Z,23.95
2022-09-01T08:29:41.518Z,23.96
2022-09-01T08:30:41.249Z,24.04
2022-09-01T08:31:41.366Z,24.01
2022-09-01T08:32:41.190Z,23.84
2022-09-01T08:33:41.128Z,23.94
2022-09-01T08:34:41.198Z,23.92
2022-09-01T08:35:41.161Z,23.94
2022-09-01T08:36:41.015Z,24.13
2022-09-01T08:37:41.195Z,24.00
2022-09-01T08:38:40.970Z,23.95
2022-09-01T08:39:40.908Z,24.09
2022-09-01T08:40:41.104Z,24.14
2022-09-01T08:41:41.136Z,24.21
2022-09-01T08:42:40.786Z,24.40
2022-09-01T08:43:40.808Z,24.44
2022-09-01T08:44:40.862Z,24.62
2022-09-01T08:45:40.675Z,24.59
2022-09-01T08:46:40.678Z,24.77
2022-09-01T08:48:04.759Z,24.74
2022-09-01T08:49:43.773Z,24.77
2022-09-01T08:50:40.883Z,24.84
2022-09-01T08:51:40.511Z,24.81
2022-09-01T08:52:41.389Z,24.85
2022-09-01T08:53:40.371Z,24.79
2022-09-01T08:54:40.471Z,24.82
2022-09-01T08:55:40.297Z,24.94
2022-09-01T08:56:40.497Z,24.94
2022-09-01T08:57:40.329Z,25.09
2022-09-01T08:58:40.316Z,25.14
2022-09-01T08:59:40.159Z,25.21
2022-09-01T09:00:40.362Z,25.36
2022-09-01T09:01:40.125Z,25.40
2022-09-01T09:02:40.160Z,25.46
2022-09-01T09:03:41.078Z,25.55
2022-09-01T09:04:40.341Z,25.63
2022-09-01T09:05:39.929Z,25.67
2022-09-01T09:06:40.004Z,25.71
2022-09-01T09:07:39.875Z,25.73
2022-09-01T09:08:39.816Z,25.95
2022-09-01T09:09:39.796Z,25.95
2022-09-01T09:10:39.971Z,26.06
2022-09-01T09:11:39.735Z,26.10
2022-09-01T09:12:48.985Z,26.18
2022-09-01T09:13:39.628Z,26.15
2022-09-01T09:14:39.863Z,26.15
2022-09-01T09:15:39.863Z,26.08
2022-09-01T09:16:39.519Z,26.06
2022-09-01T09:17:39.615Z,25.93
2022-09-01T09:18:40.230Z,25.98
2022-09-01T09:19:39.631Z,25.98
2022-09-01T09:20:39.396Z,26.01
2022-09-01T09:21:39.440Z,26.03
2022-09-01T09:22:39.303Z,26.10
2022-09-01T09:23:39.452Z,26.07
2022-09-01T09:24:40.334Z,25.99
2022-09-01T09:25:39.264Z,26.07
2022-09-01T09:26:42.540Z,26.08
2022-09-01T09:27:39.285Z,26.01
2022-09-01T09:28:39.080Z,26.07
2022-09-01T09:29:39.307Z,26.16
2022-09-01T09:30:39.178Z,26.15
2022-09-01T09:31:39.012Z,26.13
2022-09-01T09:33:06.551Z,26.22
2022-09-01T09:33:51.201Z,26.27
2022-09-01T09:34:38.864Z,26.10
2022-09-01T09:35:38.928Z,26.07
2022-09-01T09:36:39.004Z,26.10
2022-09-01T09:37:38.756Z,26.08
2022-09-01T09:38:38.716Z,26.11
2022-09-01T09:39:39.772Z,26.07
2022-09-01T09:40:59.997Z,26.03
2022-09-01T09:41:38.651Z,25.99
2022-09-01T09:42:39.052Z,25.98
2022-09-01T09:43:38.541Z,25.89
2022-09-01T09:44:38.538Z,25.95
2022-09-01T09:45:41.665Z,26.10
2022-09-01T09:46:39.711Z,26.10
2022-09-01T09:47:45.236Z,26.08
2022-09-01T09:48:38.347Z,26.03
2022-09-01T09:49:44.260Z,26.04
2022-09-01T09:50:38.422Z,26.08
2022-09-01T09:51:38.264Z,26.23
2022-09-01T09:52:38.437Z,26.26
2022-09-01T09:53:38.225Z,26.23
2022-09-01T09:54:38.246Z,26.29
2022-09-01T09:55:38.093Z,26.37
2022-09-01T09:56:38.325Z,26.36
2022-09-01T09:57:38.116Z,26.41
2022-09-01T09:58:38.218Z,26.29
2022-09-01T09:59:57.139Z,26.19
2022-09-01T10:00:37.921Z,26.15
2022-09-01T10:01:38.130Z,26.16
2022-09-01T10:02:37.839Z,26.16
2022-09-01T10:03:38.117Z,26.22
2022-09-01T10:04:37.771Z,26.26
2022-09-01T10:05:37.917Z,26.30
2022-09-01T10:06:37.923Z,26.30
2022-09-01T10:07:37.678Z,26.34
2022-09-01T10:08:37.729Z,26.27
2022-09-01T10:09:37.861Z,26.22
2022-09-01T10:10:37.748Z,26.31
2022-09-01T10:11:41.270Z,26.30
2022-09-01T10:12:37.474Z,26.27
2022-09-01T10:13:37.435Z,26.31
2022-09-01T10:14:52.516Z,26.22
2022-09-01T10:15:37.377Z,26.29
2022-09-01T10:16:37.431Z,26.41
2022-09-01T10:17:37.291Z,26.37
2022-09-01T10:18:37.549Z,26.52
2022-09-01T10:19:37.227Z,26.52
2022-09-01T10:20:37.428Z,26.55
2022-09-01T10:21:37.157Z,26.37
2022-09-01T10:22:37.263Z,26.42
2022-09-01T10:23:37.094Z,26.08
2022-09-01T10:24:38.793Z,26.10
2022-09-01T10:25:37.370Z,26.04
2022-09-01T10:26:37.411Z,26.15
2022-09-01T10:27:37.056Z,26.27
2022-09-01T10:28:36.888Z,26.36
2022-09-01T10:29:47.406Z,26.45
2022-09-01T10:30:36.853Z,26.70
2022-09-01T10:31:37.010Z,26.74
2022-09-01T10:32:38.684Z,26.88
2022-09-01T10:33:37.013Z,27.07
2022-09-01T10:34:37.101Z,27.22
2022-09-01T10:35:45.757Z,27.72
2022-09-01T10:36:37.375Z,28.30
2022-09-01T10:37:36.563Z,29.12
2022-09-01T10:38:36.528Z,29.62
2022-09-01T10:39:40.862Z,29.79
2022-09-01T10:40:36.475Z,30.29
2022-09-01T10:41:36.423Z,30.89
2022-09-01T10:42:36.397Z,31.62
2022-09-01T10:43:37.985Z,32.05
2022-09-01T10:44:36.319Z,32.39
2022-09-01T10:45:36.597Z,33.04
2022-09-01T10:46:41.900Z,33.61
2022-09-01T10:47:36.239Z,34.00
2022-09-01T10:48:47.868Z,34.19
2022-09-01T10:49:36.163Z,34.24
2022-09-01T10:50:36.145Z,33.97
2022-09-01T10:51:38.620Z,33.91
2022-09-01T10:52:37.208Z,33.79
2022-09-01T10:53:36.035Z,33.65
2022-09-01T10:54:38.520Z,33.50
2022-09-01T10:55:36.007Z,33.15
2022-09-01T10:56:36.852Z,33.05
2022-09-01T10:57:36.171Z,32.76
2022-09-01T10:59:40.184Z,32.26
2022-09-01T11:00:36.261Z,31.90
2022-09-01T11:01:47.860Z,31.57
2022-09-01T11:02:36.921Z,31.32
2022-09-01T11:03:42.151Z,31.10
2022-09-01T11:04:36.319Z,30.96
2022-09-01T11:05:35.655Z,31.05
2022-09-01T11:06:35.649Z,31.37
2022-09-01T11:08:00.347Z,31.74
2022-09-01T11:08:35.555Z,32.24
2022-09-01T11:09:35.525Z,32.64
2022-09-01T11:10:35.884Z,32.88
2022-09-01T11:11:35.482Z,33.01
2022-09-01T11:12:35.458Z,32.67
2022-09-01T11:13:35.396Z,32.37
2022-09-01T11:14:35.370Z,32.46
2022-09-01T11:15:35.469Z,32.51
2022-09-01T11:16:50.613Z,33.01
2022-09-01T11:17:35.336Z,33.35
2022-09-01T11:18:35.307Z,33.92
2022-09-01T11:19:35.216Z,34.29
2022-09-01T11:20:35.188Z,34.58
2022-09-01T11:21:35.151Z,35.01
2022-09-01T11:22:35.144Z,35.44
2022-09-01T11:23:35.115Z,35.86
2022-09-01T11:24:35.060Z,35.87
2022-09-01T11:25:41.516Z,35.63
2022-09-01T11:26:35.026Z,35.69
2022-09-01T11:27:34.970Z,35.78
2022-09-01T11:28:34.942Z,35.63
2022-09-01T11:29:34.912Z,35.59
2022-09-01T11:30:34.901Z,35.50
2022-09-01T11:31:34.926Z,35.96
2022-09-01T11:32:34.851Z,36.45
2022-09-01T11:33:34.798Z,37.10
2022-09-01T11:34:34.782Z,37.64
2022-09-01T11:35:34.751Z,37.90
2022-09-01T11:36:34.715Z,38.12
2022-09-01T11:37:34.686Z,38.58
2022-09-01T11:38:34.670Z,39.05
2022-09-01T11:39:34.638Z,39.34
2022-09-01T11:40:34.664Z,39.30
2022-09-01T11:41:34.578Z,39.19
2022-09-01T11:42:34.752Z,38.72
2022-09-01T11:43:34.526Z,38.05
2022-09-01T11:44:34.500Z,37.97
2022-09-01T11:45:34.527Z,37.79
2022-09-01T11:46:34.444Z,37.83
2022-09-01T11:47:34.418Z,37.82
2022-09-01T11:48:34.435Z,38.05
2022-09-01T11:49:34.364Z,38.39
2022-09-01T11:50:34.337Z,38.69
2022-09-01T11:51:34.310Z,39.01
2022-09-01T11:52:34.286Z,39.42
2022-09-01T11:53:34.260Z,39.68
2022-09-01T11:54:34.259Z,39.75
2022-09-01T11:55:34.202Z,39.63
2022-09-01T11:56:34.174Z,39.29
2022-09-01T11:57:34.153Z,39.34
2022-09-01T11:58:34.124Z,39.49
2022-09-01T11:59:34.096Z,39.78
2022-09-01T12:00:34.097Z,39.93
2022-09-01T12:01:34.045Z,39.94
2022-09-01T12:02:36.734Z,40.01
2022-09-01T12:03:34.106Z,40.02
2022-09-01T12:04:33.966Z,40.00
2022-09-01T12:05:33.942Z,40.29
2022-09-01T12:06:33.939Z,40.61
2022-09-01T12:07:33.889Z,40.51
2022-09-01T12:08:33.866Z,40.74
2022-09-01T12:09:33.837Z,40.88
2022-09-01T12:10:33.812Z,41.07
2022-09-01T12:11:33.783Z,41.42
2022-09-01T12:12:33.803Z,41.81
2022-09-01T12:13:33.734Z,42.00
2022-09-01T12:14:54.879Z,42.09
2022-09-01T12:15:33.680Z,41.99
2022-09-01T12:16:33.728Z,42.00
2022-09-01T12:17:33.635Z,42.02
2022-09-01T12:18:33.620Z,42.12
2022-09-01T12:19:33.586Z,42.17
2022-09-01T12:20:33.568Z,41.99
2022-09-01T12:21:33.550Z,41.49
2022-09-01T12:22:33.511Z,41.04
2022-09-01T12:23:33.503Z,40.59
2022-09-01T12:24:33.460Z,39.78
2022-09-01T12:25:33.432Z,38.87
2022-09-01T12:26:33.412Z,38.28
2022-09-01T12:27:33.393Z,37.56
2022-09-01T12:28:33.357Z,37.11
2022-09-01T12:29:33.323Z,36.51
2022-09-01T12:30:33.296Z,35.82
2022-09-01T12:31:33.320Z,35.31
2022-09-01T12:32:33.257Z,35.13
2022-09-01T12:33:33.210Z,34.76
2022-09-01T12:34:33.184Z,34.33
2022-09-01T12:35:33.153Z,33.92
2022-09-01T12:36:33.157Z,33.66
2022-09-01T12:37:33.093Z,33.42
2022-09-01T12:38:33.076Z,33.10
2022-09-01T12:39:33.850Z,33.05
2022-09-01T12:40:33.033Z,33.04
2022-09-01T12:41:32.971Z,33.35
2022-09-01T12:42:41.329Z,33.70
2022-09-01T12:43:32.910Z,34.14
2022-09-01T12:44:32.880Z,34.73
2022-09-01T12:45:32.884Z,35.22
2022-09-01T12:46:33.391Z,35.60
2022-09-01T12:47:32.804Z,36.18
2022-09-01T12:48:33.468Z,36.80
2022-09-01T12:49:32.732Z,37.31
2022-09-01T12:50:32.699Z,37.85
2022-09-01T12:51:32.670Z,38.25
2022-09-01T12:52:32.640Z,38.44
2022-09-01T12:53:36.122Z,38.32
2022-09-01T12:54:32.586Z,38.23
2022-09-01T12:55:47.963Z,38.60
2022-09-01T12:56:32.528Z,38.72
2022-09-01T12:57:32.501Z,38.88
2022-09-01T12:58:32.499Z,38.88
2022-09-01T12:59:37.245Z,38.50
2022-09-01T13:00:32.417Z,38.23
2022-09-01T13:01:32.540Z,38.28
2022-09-01T13:02:32.498Z,38.47
2022-09-01T13:03:32.330Z,38.57
2022-09-01T13:04:32.424Z,38.57
2022-09-01T13:05:36.087Z,38.79
2022-09-01T13:06:32.249Z,38.73
2022-09-01T13:07:32.227Z,38.50
2022-09-01T13:08:32.199Z,38.50
2022-09-01T13:09:32.169Z,38.54
2022-09-01T13:10:32.634Z,38.69
2022-09-01T13:12:05.904Z,38.79
2022-09-01T13:12:32.085Z,38.84
2022-09-01T13:13:32.056Z,38.82
2022-09-01T13:14:32.026Z,38.72
2022-09-01T13:15:32.004Z,38.25
2022-09-01T13:16:32.052Z,37.73
2022-09-01T13:17:31.942Z,37.14
2022-09-01T13:18:32.018Z,36.99
2022-09-01T13:19:31.889Z,36.80